Time;durP1;ratioP1;P1;durP2;ratioP2;P2;SDS_P1;SDS_P2;PMS_P1;PMS_P2;Temp;Humidity;BMP_temperature;BMP_pressure;BME280_temperature;BME280_humidity;BME280_pressure;Samples;Min_cycle;Max_cycle;Signal;HPM_P1;HPM_P2
2024/04/19 00:00:26;;;;;;;9.68;1.95;;;5.90;99.90;;;4.50;89.24;100680.72;4865865;28;20492;-84
2024/04/19 00:03:22;;;;;;;10.23;1.65;;;5.90;99.90;;;4.46;89.20;100684.28;4975899;28;20174;-83
2024/04/19 00:05:59;;;;;;;15.55;2.00;;;5.80;99.90;;;4.37;89.38;100674.06;4994925;28;20016;-83
2024/04/19 00:08:25;;;;;;;8.63;1.50;;;5.80;99.90;;;4.35;89.53;100678.44;4987500;28;20090;-83
2024/04/19 00:11:04;;;;;;;17.65;1.90;;;;;;;4.34;89.52;100668.88;4941134;28;20052;-83
2024/04/19 00:13:42;;;;;;;12.18;2.05;;;5.70;99.90;;;4.35;89.78;100673.22;4947258;28;20078;-83
2024/04/19 00:16:20;;;;;;;9.65;1.63;;;;;;;4.34;90.06;100654.09;4908410;28;20016;-82
2024/04/19 00:18:50;;;;;;;15.02;1.63;;;5.70;99.90;;;4.37;90.19;100658.41;4972788;28;20374;-83
2024/04/19 00:21:24;;;;;;;20.30;2.53;;;5.80;99.90;;;4.36;90.18;100652.31;4969908;28;20011;-83
2024/04/19 00:23:50;;;;;;;10.50;2.33;;;5.70;99.90;;;4.34;90.21;100651.50;4972861;28;20002;-83
2024/04/19 00:26:32;;;;;;;16.67;2.15;;;;;;;4.36;89.91;100652.31;4957255;28;20102;-84
2024/04/19 00:29:25;;;;;;;11.48;1.77;;;5.70;99.90;;;4.29;89.54;100641.16;5029777;27;20010;-84
2024/04/19 00:31:51;;;;;;;8.15;1.60;;;5.70;99.90;;;4.24;89.86;100640.44;4992491;28;20017;-82
2024/04/19 00:34:17;;;;;;;9.82;1.58;;;5.60;99.90;;;4.16;90.03;100634.50;5155688;27;20017;-84
2024/04/19 00:36:51;;;;;;;11.45;2.22;;;;;;;4.07;90.23;100627.75;5065606;27;20359;-83
2024/04/19 00:39:20;;;;;;;6.82;1.80;;;5.50;99.90;;;4.02;90.44;100626.16;5171321;27;20006;-83
2024/04/19 00:41:59;;;;;;;15.60;2.08;;;;;;;3.90;90.58;100622.03;5173392;27;20008;-82
2024/04/19 00:44:41;;;;;;;13.63;2.28;;;5.30;99.90;;;3.83;90.80;100618.72;5169751;27;20015;-82
2024/04/19 00:47:15;;;;;;;8.13;1.45;;;5.20;99.90;;;3.83;90.54;100618.72;5126453;27;20008;-83
2024/04/19 00:49:43;;;;;;;8.40;1.63;;;;;;;3.77;90.38;100611.00;5171802;27;20011;-86
2024/04/19 00:52:19;;;;;;;14.63;2.05;;;5.20;99.90;;;3.76;90.08;100613.66;5109602;27;20007;-83
2024/04/19 00:54:45;;;;;;;12.02;2.00;;;5.10;99.90;;;3.71;90.30;100600.72;5143998;27;20022;-83
2024/04/19 00:57:11;;;;;;;9.32;1.52;;;5.20;99.90;;;3.68;89.94;100599.03;5139716;27;20019;-83
2024/04/19 00:59:48;;;;;;;11.77;1.90;;;;;;;3.70;90.14;100606.84;5179679;27;19995;-83
2024/04/19 01:02:15;;;;;;;16.05;2.25;;;5.10;99.90;;;3.68;89.95;100595.59;5103147;27;20070;-84
2024/04/19 01:04:48;;;;;;;20.30;2.50;;;5.10;99.90;;;3.66;90.03;100586.94;5130710;27;20052;-82
2024/04/19 01:07:17;;;;;;;17.05;1.73;;;;;;;3.64;89.84;100591.31;5163032;27;20050;-83
2024/04/19 01:09:43;;;;;;;6.35;1.33;;;5.00;99.90;;;3.60;89.50;100587.06;5190749;27;20389;-83
2024/04/19 01:12:41;;;;;;;15.93;2.13;;;4.90;99.90;;;3.54;89.11;100584.59;5164022;27;20073;-83
2024/04/19 01:15:35;;;;;;;9.00;1.77;;;4.90;99.90;;;3.47;89.08;100583.84;5054154;27;20456;-83
2024/04/19 01:18:32;;;;;;;9.05;2.28;;;4.90;99.90;;;3.38;89.35;100582.28;5109836;27;20027;-83
2024/04/19 01:20:58;;;;;;;8.05;1.95;;;4.80;99.90;;;3.30;89.80;100576.34;5116136;27;20473;-82
2024/04/19 01:23:31;;;;;;;10.80;1.77;;;4.70;99.90;;;3.25;90.20;100578.19;5190572;27;20011;-83
2024/04/19 01:26:10;;;;;;;15.10;2.50;;;4.70;99.90;;;3.16;90.30;100563.63;5089234;27;20005;-84
2024/04/19 01:28:41;;;;;;;14.25;2.65;;;4.60;99.90;;;3.14;90.79;100559.34;5109536;27;20070;-83
2024/04/19 01:31:32;;;;;;;19.10;2.38;;;4.50;99.90;;;3.05;91.28;100556.00;5130113;27;20005;-83
2024/04/19 01:33:58;;;;;;;17.00;1.85;;;4.50;99.90;;;2.97;91.63;100550.09;5124848;27;20018;-83
2024/04/19 01:36:24;;;;;;;17.45;2.10;;;4.50;99.90;;;2.96;91.65;100551.00;5113400;27;20035;-83
2024/04/19 01:39:02;;;;;;;10.27;2.38;;;4.40;99.90;;;2.94;91.98;100541.47;5139951;27;20035;-82
2024/04/19 01:41:40;;;;;;;18.85;2.38;;;4.40;99.90;;;2.94;92.02;100550.16;5078060;27;20493;-84
2024/04/19 01:44:06;;;;;;;15.25;2.10;;;4.40;99.90;;;2.91;92.31;100549.34;5141696;27;20384;-83
2024/04/19 01:46:32;;;;;;;11.57;1.55;;;4.40;99.90;;;2.90;92.30;100543.28;5146057;27;20017;-82
2024/04/19 01:48:57;;;;;;;14.07;2.05;;;4.40;99.90;;;2.92;92.37;100544.13;5116321;27;20029;-83
2024/04/19 01:51:36;;;;;;;11.93;2.05;;;4.30;99.90;;;2.88;92.63;100538.09;5112057;27;20011;-83
2024/04/19 01:54:02;;;;;;;9.23;1.85;;;4.30;99.90;;;2.90;92.95;100537.25;5171665;27;20013;-83
2024/04/19 01:56:41;;;;;;;17.90;2.00;;;4.40;99.90;;;2.91;92.66;100529.38;5162199;27;20017;-83
2024/04/19 01:59:19;;;;;;;11.63;1.75;;;4.40;99.90;;;2.91;92.45;100528.53;5123699;27;20028;-83
2024/04/19 02:01:45;;;;;;;9.77;1.83;;;4.30;99.90;;;2.91;92.86;100528.53;5088084;27;20026;-82
2024/04/19 02:04:22;;;;;;;10.35;1.75;;;4.40;99.90;;;2.91;92.79;100523.34;5153705;27;20471;-83
2024/04/19 02:07:19;;;;;;;9.50;1.80;;;4.30;99.90;;;2.93;93.19;100526.75;5122709;27;20081;-84
2024/04/19 02:09:45;;;;;;;14.60;2.10;;;4.30;99.90;;;2.90;93.59;100514.69;5018486;28;20014;-83
2024/04/19 02:12:21;;;;;;;10.55;2.35;;;;;;;2.89;93.84;100512.94;4999128;27;20753;-83
2024/04/19 02:15:03;;;;;;;24.63;2.17;;;;;;;2.90;93.63;100517.28;5045464;27;20005;-83
2024/04/19 02:17:41;;;;;;;16.98;1.95;;;;;;;2.91;94.16;100508.56;5078598;27;20017;-83
2024/04/19 02:20:24;;;;;;;13.40;1.60;;;;;;;2.91;94.08;100508.56;5057201;27;20019;-85
2024/04/19 02:22:50;;;;;;;8.13;1.40;;;4.40;99.90;;;2.92;94.94;100491.25;5035895;27;20010;-83
2024/04/19 02:25:24;;;;;;;14.60;2.38;;;4.40;99.90;;;2.97;94.95;100492.00;5068324;27;21470;-84
2024/04/19 02:30:59;;;;;;;17.67;2.33;;;4.40;99.90;;;3.03;94.92;100484.09;4986656;28;20022;-84
2024/04/19 02:33:46;;;;;;;23.02;3.05;;;4.50;99.90;;;3.06;94.58;100478.81;5019602;27;20029;-84
2024/04/19 02:36:21;;;;;;;18.38;5.13;;;;;;;3.07;95.14;100477.94;4951894;28;20020;-83
2024/04/19 02:38:49;;;;;;;19.33;5.57;;;4.50;99.90;;;3.10;95.05;100475.28;4937761;28;20785;-83
2024/04/19 02:41:42;;;;;;;20.73;6.05;;;4.50;99.90;;;3.13;94.79;100471.75;4921914;28;20082;-84
2024/04/19 02:44:19;;;;;;;22.75;7.00;;;;;;;3.13;94.80;100464.78;4893698;28;20087;-84
2024/04/19 02:46:55;;;;;;;;;;;;;;;;;;;;;
2024/04/19 02:49:24;;;;;;;17.83;7.43;;;4.60;99.90;;;3.16;94.88;100461.31;4953211;28;20698;-83
2024/04/19 02:51:52;;;;;;;18.95;6.25;;;;;;;3.18;95.16;100449.97;4999045;28;20071;-83
2024/04/19 02:54:44;;;;;;;27.00;6.13;;;4.60;99.90;;;3.23;95.23;100447.25;4980522;28;20500;-84
2024/04/19 02:57:10;;;;;;;16.75;5.03;;;4.60;99.90;;;3.23;95.38;100436.84;4915642;28;20009;-82
2024/04/19 03:02:43;;;;;;;16.98;2.85;;;4.70;99.90;;;3.31;96.44;100427.16;4967534;28;20545;-83
2024/04/19 03:05:11;;;;;;;20.75;3.05;;;4.70;99.90;;;3.33;96.48;100422.78;4957751;28;20115;-83
2024/04/19 03:07:50;;;;;;;12.18;2.30;;;;;;;3.36;96.82;100420.09;4964708;28;20018;-83
2024/04/19 03:10:16;;;;;;;15.18;2.20;;;4.80;99.90;;;3.42;97.51;100417.34;4997201;27;20008;-83
2024/04/19 03:13:24;;;;;;;17.13;2.47;;;4.80;99.90;;;3.44;97.60;100404.31;5017389;28;20074;-83
2024/04/19 03:15:50;;;;;;;13.82;2.10;;;4.90;99.90;;;3.46;98.20;100407.75;4963735;28;20011;-83
2024/04/19 03:18:16;;;;;;;13.70;2.33;;;;;;;3.52;98.22;100398.91;5014847;28;20159;-84
2024/04/19 03:20:42;;;;;;;13.75;2.00;;;4.90;99.90;;;3.55;98.64;100399.72;5002382;28;20016;-83
2024/04/19 03:23:21;;;;;;;13.40;2.20;;;;;;;3.60;98.41;100397.00;4977640;28;20065;-83
2024/04/19 03:26:10;;;;;;;13.38;2.55;;;5.00;99.90;;;3.64;98.69;100386.47;4988829;28;20015;-83
2024/04/19 03:28:38;;;;;;;16.13;2.08;;;5.00;99.90;;;3.63;98.78;100389.13;4942117;28;20015;-83
2024/04/19 03:31:33;;;;;;;13.50;2.33;;;5.10;99.90;;;3.69;98.57;100382.03;4950451;28;20032;-82
2024/04/19 03:34:02;;;;;;;13.70;2.25;;;5.10;99.90;;;3.68;99.03;100371.66;4918922;28;20218;-83
2024/04/19 03:37:17;;;;;;;;;;;;;;;;;;;;;
2024/04/19 03:39:52;;;;;;;10.77;2.10;;;5.20;99.90;;;3.78;100.00;100365.34;4792110;29;20060;-82
2024/04/19 03:42:27;;;;;;;17.45;2.75;;;;;;;3.81;100.00;100357.44;4761517;29;20044;-83
2024/04/19 03:47:50;;;;;;;17.42;2.55;;;5.30;99.90;;;3.88;100.00;100350.31;4797276;29;20102;-83
2024/04/19 03:50:16;;;;;;;22.00;2.80;;;;;;;3.95;100.00;100358.84;4812518;29;20561;-82
2024/04/19 03:52:42;;;;;;;18.25;3.05;;;;;;;3.98;100.00;100348.34;4799043;28;20018;-83
2024/04/19 03:55:20;;;;;;;19.05;2.80;;;5.40;99.90;;;4.03;100.00;100341.25;4767791;28;20017;-83
2024/04/19 03:57:46;;;;;;;18.65;2.97;;;5.40;99.90;;;4.02;100.00;100327.38;4756875;28;20982;-83
2024/04/19 04:00:21;;;;;;;16.08;3.05;;;5.50;99.90;;;4.03;100.00;100323.88;4772470;29;20022;-82
2024/04/19 04:03:13;;;;;;;13.73;3.00;;;5.40;99.90;;;4.06;100.00;100322.94;4738966;29;20022;-83
2024/04/19 04:05:54;;;;;;;18.80;2.63;;;;;;;4.07;100.00;100324.66;4798330;28;20090;-83
2024/04/19 04:08:23;;;;;;;16.23;2.85;;;4.30;99.90;;;4.10;100.00;100321.97;4876638;28;20009;-82
2024/04/19 04:11:00;;;;;;;12.73;2.85;;;;;;;4.12;100.00;100322.78;4876614;28;20011;-83
2024/04/19 04:13:27;;;;;;;24.00;2.65;;;5.50;99.90;;;4.14;100.00;100315.78;4982720;28;20008;-82
2024/04/19 04:15:53;;;;;;;12.63;2.53;;;5.50;99.90;;;4.22;100.00;100316.44;5029029;27;20014;-82
2024/04/19 04:18:30;;;;;;;16.27;3.13;;;5.60;99.90;;;4.26;100.00;100310.25;5134746;27;20008;-83
2024/04/19 04:21:06;;;;;;;;;;;;;;;;;;;;;
2024/04/19 04:23:33;;;;;;;;;;;5.70;99.90;;;4.31;100.00;100304.91;5181606;27;19998;-82
2024/04/19 04:25:59;;;;;;;16.55;3.58;;;5.70;99.90;;;4.37;100.00;100303.88;5106515;27;20354;-83
2024/04/19 04:28:25;;;;;;;14.25;3.20;;;5.70;99.90;;;4.39;100.00;100302.09;5113639;27;20457;-84
2024/04/19 04:31:14;;;;;;;19.65;4.45;;;5.80;99.90;;;4.41;100.00;100295.09;5127188;27;20087;-83
2024/04/19 04:33:42;;;;;;;14.63;6.85;;;;;;;4.45;100.00;100299.28;5157868;27;20005;-83
2024/04/19 04:36:08;;;;;;;22.27;7.90;;;;;;;4.47;100.00;100302.72;5178065;27;20005;-83
2024/04/19 04:38:59;;;;;;;28.30;8.65;;;;;;;4.49;100.00;100290.47;5134886;27;20086;-83
2024/04/19 04:41:26;;;;;;;23.30;7.30;;;;;;;4.52;100.00;100293.03;5168046;27;20474;-83
2024/04/19 04:43:51;;;;;;;25.05;6.90;;;5.90;99.90;;;4.56;100.00;100284.22;5197425;27;20051;-82
2024/04/19 04:46:48;;;;;;;27.65;7.38;;;5.90;99.90;;;4.63;100.00;100285.75;5156131;27;20475;-83
2024/04/19 04:49:40;;;;;;;;;;;6.00;99.90;;;4.63;100.00;100275.31;5145636;27;20021;-82
2024/04/19 04:52:10;;;;;;;14.38;3.90;;;6.00;99.90;;;4.66;100.00;100267.38;5038394;27;20048;-83
2024/04/19 04:55:01;;;;;;;16.48;3.75;;;6.10;99.90;;;4.71;100.00;100273.34;5012912;27;20032;-84
2024/04/19 04:57:44;;;;;;;12.52;3.35;;;;;;;4.78;100.00;100262.72;4931002;28;20025;-85
2024/04/19 05:00:19;;;;;;;16.77;2.75;;;6.20;99.90;;;4.84;100.00;100263.38;4974052;28;20036;-82
2024/04/19 05:02:48;;;;;;;15.88;3.22;;;;;;;4.87;100.00;100263.28;4978071;27;20017;-85
2024/04/19 05:05:14;;;;;;;15.43;2.97;;;;;;;4.91;100.00;100256.22;4964284;28;20007;-83
2024/04/19 05:08:02;;;;;;;15.95;3.03;;;6.20;99.90;;;4.92;100.00;100255.31;5015088;27;20018;-83
2024/04/19 05:10:33;;;;;;;11.70;2.88;;;6.20;99.90;;;4.89;100.00;100253.66;4987993;27;20026;-83
2024/04/19 05:13:10;;;;;;;12.80;3.00;;;;;;;4.90;100.00;100247.56;5048314;27;20005;-83
2024/04/19 05:15:36;;;;;;;12.50;2.72;;;;;;;4.93;100.00;100250.06;5029019;27;20002;-83
2024/04/19 05:18:02;;;;;;;16.52;3.88;;;6.30;99.90;;;4.97;100.00;100240.38;5039212;27;20014;-83
2024/04/19 05:20:40;;;;;;;9.13;2.45;;;6.30;99.90;;;4.99;100.00;100238.59;4998316;27;20457;-84
2024/04/19 05:23:06;;;;;;;22.17;3.50;;;6.30;99.90;;;5.00;100.00;100232.44;4975584;28;20391;-83
2024/04/19 05:26:02;;;;;;;15.10;3.05;;;6.30;99.90;;;5.01;100.00;100228.97;4990701;28;20099;-82
2024/04/19 05:28:40;;;;;;;18.02;3.28;;;;;;;5.04;100.00;100225.38;5027712;27;20079;-84
2024/04/19 05:31:15;;;;;;;18.20;2.90;;;;;;;5.04;100.00;100218.41;5111649;27;20025;-82
2024/04/19 05:33:42;;;;;;;14.70;3.70;;;;;;;5.07;100.00;100214.84;5074233;27;20014;-82
2024/04/19 05:36:57;;;;;;;15.20;2.40;;;6.50;99.90;;;5.15;100.00;100205.00;5017424;27;20206;-84
2024/04/19 05:39:34;;;;;;;11.93;2.50;;;;;;;5.23;100.00;100207.38;5065790;27;20056;-83
2024/04/19 05:42:12;;;;;;;17.23;2.55;;;6.60;99.90;;;5.30;100.00;100201.91;5047492;27;20021;-84
2024/04/19 05:44:38;;;;;;;11.43;2.78;;;6.60;99.90;;;5.37;100.00;100204.31;5094688;22;20002;-84
2024/04/19 05:47:13;;;;;;;12.27;2.47;;;6.70;99.90;;;5.51;100.00;100202.94;5179449;27;20041;-83
2024/04/19 05:49:43;;;;;;;16.30;2.90;;;6.80;99.90;;;5.60;100.00;100200.94;5146808;27;20029;-83
2024/04/19 05:52:20;;;;;;;14.90;2.20;;;;;;;5.67;100.00;100191.97;5119773;27;21500;-82
2024/04/19 05:55:17;;;;;;;13.30;2.35;;;7.00;99.90;;;5.72;100.00;100183.06;5193146;26;20013;-83
2024/04/19 05:57:43;;;;;;;8.05;1.90;;;7.10;99.90;;;5.81;99.31;100189.72;5137150;26;21726;-82
2024/04/19 06:00:10;;;;;;;13.98;2.35;;;7.10;99.90;;;5.81;98.30;100175.78;5113539;27;20019;-82
2024/04/19 06:02:40;;;;;;;9.95;2.08;;;7.10;99.90;;;5.85;97.24;100174.78;5153178;26;20025;-83
2024/04/19 06:05:08;;;;;;;14.85;2.03;;;7.20;99.90;;;5.85;96.30;100173.03;5190285;26;20006;-83
2024/04/19 06:07:33;;;;;;;15.63;1.88;;;7.10;99.90;;;5.86;95.55;100168.66;5197776;27;20057;-83
2024/04/19 06:10:11;;;;;;;14.05;1.90;;;7.20;99.90;;;5.88;94.57;100174.69;5160293;27;20042;-83
2024/04/19 06:12:50;;;;;;;16.75;1.63;;;7.20;99.90;;;5.87;94.05;100167.72;5158393;27;20110;-82
2024/04/19 06:15:22;;;;;;;7.03;1.67;;;7.20;99.90;;;5.92;93.50;100160.59;5156636;27;20059;-83
2024/04/19 06:17:53;;;;;;;11.13;1.75;;;7.20;99.90;;;5.92;93.41;100150.16;5193664;26;20039;-84
2024/04/19 06:20:22;;;;;;;9.13;1.40;;;7.30;99.90;;;5.99;92.96;100156.03;5140694;27;20049;-83
2024/04/19 06:23:02;;;;;;;9.05;1.70;;;7.30;99.90;;;6.02;92.09;100143.69;5174945;27;20117;-83
2024/04/19 06:25:28;;;;;;;11.82;1.95;;;7.40;99.90;;;6.12;91.46;100150.28;5181750;22;20007;-83
2024/04/19 06:28:19;;;;;;;15.95;2.05;;;7.40;99.90;;;6.16;90.87;100133.56;5117412;27;20029;-82
2024/04/19 06:30:45;;;;;;;8.43;1.55;;;7.40;99.90;;;6.22;90.85;100129.88;5058540;27;20523;-83
2024/04/19 06:33:13;;;;;;;7.57;1.77;;;7.50;99.90;;;6.16;90.10;100130.13;5101222;27;20007;-82
2024/04/19 06:36:05;;;;;;;12.88;1.70;;;7.50;99.90;;;6.16;89.44;100128.34;5076371;27;20027;-82
2024/04/19 06:38:32;;;;;;;9.55;1.75;;;;;;;6.13;88.97;100119.75;5098628;27;20021;-82
2024/04/19 06:41:10;;;;;;;11.40;1.92;;;8.20;99.90;;;6.12;88.96;100116.28;5107377;27;20049;-84
2024/04/19 06:43:36;;;;;;;9.18;2.28;;;7.50;99.90;;;6.12;89.50;100111.06;5055654;27;20100;-83
2024/04/19 06:46:02;;;;;;;9.50;1.50;;;7.50;99.90;;;6.14;89.76;100106.63;5178773;21;20037;-83
2024/04/19 06:48:35;;;;;;;11.45;2.33;;;7.40;99.90;;;6.14;89.42;100103.19;5142063;27;20030;-84
2024/04/19 06:51:01;;;;;;;12.43;1.52;;;7.40;99.90;;;6.09;88.95;100097.25;5161469;27;20439;-83
2024/04/19 06:53:27;;;;;;;9.27;2.00;;;7.40;99.90;;;6.08;89.05;100093.78;5153619;27;20056;-83
2024/04/19 06:55:54;;;;;;;10.63;1.83;;;7.40;99.90;;;6.11;88.92;100078.00;5193300;27;20453;-83
2024/04/19 06:58:31;;;;;;;8.32;1.90;;;7.50;99.90;;;6.14;89.35;100071.81;5134786;27;20022;-83
2024/04/19 07:01:26;;;;;;;4.20;1.35;;;7.50;99.90;;;6.23;89.72;100074.06;5136487;27;20796;-84
2024/04/19 07:06:42;;;;;;;14.77;2.30;;;7.60;99.90;;;6.33;90.03;100048.41;5161225;27;20150;-83
2024/04/19 07:09:13;;;;;;;9.32;2.08;;;7.60;99.90;;;6.40;89.86;100055.09;5134863;27;20060;-83
2024/04/19 07:11:51;;;;;;;12.52;2.28;;;7.80;99.90;;;6.53;89.98;100056.31;5132372;27;20008;-83
2024/04/19 07:14:26;;;;;;;12.20;2.25;;;;;;;6.63;90.14;100053.31;5184719;27;20000;-82
2024/04/19 07:16:52;;;;;;;12.98;2.53;;;7.90;99.90;;;6.70;89.69;100050.38;5094136;27;20016;-83
2024/04/19 07:19:20;;;;;;;13.60;2.00;;;8.00;99.90;;;6.75;88.97;100045.78;5123137;27;20420;-83
2024/04/19 07:21:55;;;;;;;10.32;2.13;;;8.00;99.90;;;6.73;87.30;100050.25;5097710;27;20021;-82
2024/04/19 07:24:21;;;;;;;8.10;1.77;;;8.00;99.90;;;6.74;86.74;100038.88;5071651;27;20009;-83
2024/04/19 07:26:57;;;;;;;;;;;;;;;;;;;;;
2024/04/19 07:29:25;;;;;;;12.15;1.75;;;;;;;6.81;86.86;100041.25;4979920;27;20007;-83
2024/04/19 07:31:51;;;;;;;11.55;1.92;;;8.10;99.90;;;6.83;86.63;100036.78;5042428;27;20021;-82
2024/04/19 07:34:18;;;;;;;16.63;2.25;;;;;;;6.83;86.34;100026.31;5073303;27;20033;-84
2024/04/19 07:36:54;;;;;;;10.38;1.95;;;;;;;6.81;86.30;100025.53;5094295;27;20008;-82
2024/04/19 07:39:49;;;;;;;;;;;8.10;99.90;;;6.66;85.66;100013.94;5106524;27;20434;-83
2024/04/19 07:42:15;;;;;;;5.38;1.67;;;8.00;99.90;;;6.62;85.64;100013.22;5048906;27;19966;-83
2024/04/19 07:44:41;;;;;;;5.88;1.80;;;8.00;99.90;;;6.63;85.96;100011.44;5101381;22;20074;-82
2024/04/19 07:47:21;;;;;;;6.55;1.85;;;7.90;99.90;;;6.60;86.40;100006.34;5111627;27;20009;-83
2024/04/19 07:49:56;;;;;;;13.77;2.22;;;7.90;99.90;;;6.55;86.34;100010.00;5155575;27;20086;-82
2024/04/19 07:52:22;;;;;;;9.27;1.65;;;;;;;6.47;86.52;99998.16;5153144;27;20008;-83
2024/04/19 07:54:55;;;;;;;10.93;2.35;;;7.80;99.90;;;6.39;86.42;99990.63;5118785;27;20008;-82
2024/04/19 07:57:40;;;;;;;7.35;1.80;;;7.80;99.90;;;6.42;87.10;99987.91;5131337;27;20067;-84
2024/04/19 08:00:21;;;;;;;;;;;;;;;;;;;;;
2024/04/19 08:02:47;;;;;;;8.60;1.33;;;7.60;99.90;;;6.11;86.73;99980.44;5102981;27;20463;-82
2024/04/19 08:05:13;;;;;;;9.45;2.00;;;7.50;99.90;;;6.11;87.13;99977.81;5125555;27;20048;-81
2024/04/19 08:07:49;;;;;;;7.65;2.13;;;7.50;99.90;;;6.07;87.84;99978.84;5131228;27;20032;-82
2024/04/19 08:10:16;;;;;;;6.72;1.75;;;7.40;99.90;;;6.03;88.16;99975.53;5141949;27;20027;-82
2024/04/19 08:12:44;;;;;;;6.90;1.60;;;7.40;99.90;;;6.05;88.46;99970.25;5094380;27;20061;-81
2024/04/19 08:15:20;;;;;;;7.93;2.03;;;7.40;99.90;;;6.08;89.23;99962.28;5103845;27;20096;-83
2024/04/19 08:17:45;;;;;;;7.07;2.00;;;7.40;99.90;;;6.05;89.49;99957.19;5051957;27;20021;-82
2024/04/19 08:20:23;;;;;;;6.15;1.95;;;7.40;99.90;;;6.08;89.87;99946.59;5160334;27;20086;-82
2024/04/19 08:22:50;;;;;;;5.80;1.90;;;7.30;99.90;;;6.13;89.86;99952.47;5095435;27;20446;-82
2024/04/19 08:25:25;;;;;;;7.25;2.03;;;7.50;99.90;;;6.25;90.38;99948.53;5128088;27;20038;-82
2024/04/19 08:27:54;;;;;;;5.60;2.22;;;;;;;6.28;90.23;99943.16;5150519;27;20501;-84
2024/04/19 08:30:46;;;;;;;7.32;2.03;;;7.60;99.90;;;6.33;90.24;99942.06;5157785;27;20011;-82
2024/04/19 08:33:12;;;;;;;9.63;2.00;;;7.60;99.90;;;6.35;90.42;99929.78;5136048;27;20016;-82
2024/04/19 08:36:02;;;;;;;10.07;2.40;;;7.70;99.90;;;6.42;90.23;99935.59;5105302;27;20021;-84
2024/04/19 08:38:28;;;;;;;6.13;1.83;;;7.70;99.90;;;6.49;90.31;99933.56;5133309;27;20005;-82
2024/04/19 08:41:06;;;;;;;12.27;2.10;;;7.80;99.90;;;6.56;90.32;99921.91;5136578;27;20005;-82
2024/04/19 08:43:34;;;;;;;10.55;2.30;;;7.80;99.90;;;6.60;90.26;99927.88;5143578;27;20459;-82
2024/04/19 08:46:01;;;;;;;7.97;1.80;;;7.80;99.90;;;6.56;90.74;99921.91;5119957;27;20459;-82
2024/04/19 08:48:40;;;;;;;11.25;2.50;;;7.80;99.90;;;6.54;90.78;99913.28;5082198;27;20044;-83
2024/04/19 08:51:13;;;;;;;7.93;2.25;;;;;;;6.47;90.64;99907.47;5147148;27;20420;-82
2024/04/19 08:53:42;;;;;;;4.72;2.25;;;7.80;99.90;;;6.43;90.80;99902.44;5129234;27;20030;-82
2024/04/19 08:56:19;;;;;;;8.25;2.55;;;;;;;6.46;90.46;99903.16;5129892;27;20004;-83
2024/04/19 08:58:45;;;;;;;9.98;2.38;;;7.70;99.90;;;6.41;91.07;99902.50;5139480;27;20023;-83
2024/04/19 09:01:13;;;;;;;8.15;2.10;;;7.70;99.90;;;6.38;90.98;99901.78;5104616;27;20040;-82
2024/04/19 09:03:51;;;;;;;5.18;2.53;;;7.70;99.90;;;6.32;90.99;99893.28;5078322;27;20507;-82
2024/04/19 09:06:17;;;;;;;6.05;2.60;;;7.60;99.90;;;6.32;91.27;99890.66;5093341;27;20026;-83
2024/04/19 09:08:53;;;;;;;5.43;2.80;;;7.60;99.90;;;6.39;91.87;99886.03;5108740;27;20019;-82
2024/04/19 09:11:21;;;;;;;6.63;2.73;;;7.70;99.90;;;6.44;91.62;99886.69;5125363;27;20110;-82
2024/04/19 09:14:01;;;;;;;6.60;2.50;;;7.70;99.90;;;6.52;91.91;99887.22;5152955;27;20263;-82
2024/04/19 09:16:36;;;;;;;6.35;2.88;;;7.80;99.90;;;6.61;91.75;99878.13;5066052;27;20019;-82
2024/04/19 09:19:15;;;;;;;5.03;3.00;;;7.90;99.90;;;6.70;91.68;99882.09;5116324;27;20004;-83
2024/04/19 09:21:45;;;;;;;11.45;3.47;;;8.00;99.90;;;6.73;91.37;99874.94;5136588;27;20094;-83
2024/04/19 09:24:18;;;;;;;8.73;3.00;;;;;;;6.72;90.96;99868.03;5088582;27;20014;-83
2024/04/19 09:26:45;;;;;;;7.90;3.15;;;;;;;6.76;90.77;99866.97;5137239;27;20483;-85
2024/04/19 09:29:26;;;;;;;5.78;2.90;;;8.10;99.90;;;6.77;90.91;99867.81;5137978;27;20864;-82
2024/04/19 09:31:52;;;;;;;7.63;3.13;;;;;;;6.78;91.25;99865.16;5025384;27;20010;-82
2024/04/19 09:34:24;;;;;;;4.68;3.00;;;8.10;99.90;;;6.70;91.29;99854.16;5088287;27;20040;-83
2024/04/19 09:36:52;;;;;;;5.90;3.13;;;8.00;99.90;;;6.63;90.38;99854.50;5064164;27;20376;-84
2024/04/19 09:39:21;;;;;;;10.13;3.50;;;7.90;99.90;;;6.60;89.93;99852.88;5046995;27;20072;-83
2024/04/19 09:42:13;;;;;;;8.95;3.63;;;7.90;99.90;;;6.57;90.81;99850.41;5085129;27;20022;-82
2024/04/19 09:44:53;;;;;;;5.78;3.50;;;;;;;6.61;91.34;99845.84;5001873;27;20015;-83
2024/04/19 09:47:29;;;;;;;4.95;3.60;;;7.90;99.90;;;6.67;91.57;99840.34;5032033;27;20029;-83
2024/04/19 09:50:00;;;;;;;5.57;3.17;;;;;;;6.75;91.99;99839.09;5103412;27;20398;-83
2024/04/19 09:52:58;;;;;;;7.18;3.70;;;8.00;99.90;;;6.81;91.84;99837.13;5114736;27;20467;-83
2024/04/19 09:56:21;;;;;;;6.53;3.28;;;8.10;99.90;;;6.85;92.01;99828.25;5065387;27;20678;-82
2024/04/19 09:58:58;;;;;;;;;;;;;;;;;;;;;
2024/04/19 10:01:24;;;;;;;6.72;3.95;;;8.20;99.90;;;6.98;91.90;99817.13;5153475;27;21866;-82
2024/04/19 10:03:53;;;;;;;6.35;3.53;;;;;;;7.07;92.19;99818.47;5138340;21;20012;-82
2024/04/19 10:06:35;;;;;;;6.93;3.97;;;8.30;99.90;;;7.14;92.04;99813.78;5168232;27;20023;-84
2024/04/19 10:09:35;;;;;;;10.40;3.90;;;;;;;7.12;92.01;99813.00;5153447;27;20012;-83
2024/04/19 10:12:10;;;;;;;8.82;4.03;;;8.40;99.90;;;7.13;91.86;99812.94;5118635;27;20011;-83
2024/04/19 10:14:43;;;;;;;6.53;3.70;;;;;;;7.14;91.61;99812.00;5162823;27;20023;-82
2024/04/19 10:17:24;;;;;;;5.82;3.90;;;8.40;99.90;;;7.09;91.94;99798.31;5141784;27;20066;-84
2024/04/19 10:19:54;;;;;;;9.02;4.22;;;8.40;99.90;;;7.12;92.52;99798.16;5135892;27;20117;-84
2024/04/19 10:22:25;;;;;;;8.52;4.15;;;8.40;99.90;;;7.13;92.56;99799.84;5134505;27;20463;-82
2024/04/19 10:25:05;;;;;;;8.48;3.67;;;8.40;99.90;;;7.21;92.95;99789.00;5105186;27;20015;-82
2024/04/19 10:27:33;;;;;;;4.10;2.80;;;8.50;99.90;;;7.23;92.99;99787.16;5084152;27;20095;-82
2024/04/19 10:30:12;;;;;;;4.20;2.75;;;8.50;99.90;;;7.25;92.71;99784.47;5123689;27;20091;-82
2024/04/19 10:32:38;;;;;;;6.10;3.35;;;8.50;99.90;;;7.27;92.58;99788.72;5115603;27;21479;-83
2024/04/19 10:35:21;;;;;;;4.32;3.00;;;8.50;99.90;;;7.24;91.77;99780.19;5119633;27;20037;-82
2024/04/19 10:38:01;;;;;;;8.25;3.63;;;8.40;99.90;;;7.12;91.25;99782.44;5089342;27;20028;-83
2024/04/19 10:40:46;;;;;;;;;;;;;;;;;;;;;
2024/04/19 10:43:15;;;;;;;3.22;2.00;;;8.10;99.90;;;6.73;91.44;99766.84;5059821;27;20657;-82
2024/04/19 10:45:45;;;;;;;2.40;2.00;;;8.10;99.90;;;6.68;92.64;99771.44;5065779;27;20009;-82
2024/04/19 10:48:20;;;;;;;2.15;1.40;;;8.00;99.90;;;6.64;93.13;99767.25;5102702;27;20023;-83
2024/04/19 10:50:47;;;;;;;3.25;1.30;;;7.90;99.90;;;6.58;93.66;99753.53;5148821;27;19999;-83
2024/04/19 10:53:12;;;;;;;1.33;1.13;;;7.90;99.90;;;6.60;93.62;99758.69;5087636;27;20065;-82
2024/04/19 10:55:47;;;;;;;1.08;0.75;;;7.90;99.90;;;6.60;93.55;99745.63;5116271;27;20052;-83
2024/04/19 10:58:13;;;;;;;1.65;0.73;;;7.90;99.90;;;6.51;92.46;99751.28;5078024;27;20031;-81
2024/04/19 11:00:51;;;;;;;1.77;0.70;;;7.80;99.90;;;6.44;91.84;99755.09;5138033;27;20023;-81
2024/04/19 11:03:20;;;;;;;0.90;0.57;;;7.80;99.90;;;6.40;92.13;99748.31;5057083;27;20443;-85
2024/04/19 11:05:46;;;;;;;1.42;0.70;;;7.70;99.90;;;6.38;92.12;99745.75;5056774;27;20037;-84
2024/04/19 11:08:24;;;;;;;1.80;0.77;;;7.80;99.90;;;6.43;92.27;99740.31;5034317;27;20099;-83
2024/04/19 11:11:15;;;;;;;0.98;0.90;;;7.80;99.90;;;6.45;92.92;99738.47;5093073;27;20031;-83
2024/04/19 11:13:43;;;;;;;0.70;0.68;;;;;;;6.45;93.58;99746.31;5047722;27;20013;-82
2024/04/19 11:16:09;;;;;;;0.82;0.70;;;;;;;6.45;92.89;99736.69;5018418;27;20057;-84
2024/04/19 11:18:43;;;;;;;1.20;0.68;;;7.80;99.90;;;6.44;92.90;99740.25;5063727;27;20078;-82
2024/04/19 11:21:12;;;;;;;0.60;0.60;;;7.80;99.90;;;6.49;92.98;99732.19;4982593;27;20098;-82
2024/04/19 11:23:48;;;;;;;;;;;;;;;;;;;;;
2024/04/19 11:26:16;;;;;;;;;;;7.80;99.90;;;6.43;92.09;99735.91;5039124;27;20745;-83
2024/04/19 11:28:53;;;;;;;1.40;0.65;;;7.90;99.90;;;6.40;92.95;99720.38;5043318;27;20742;-82
2024/04/19 11:31:21;;;;;;;1.55;0.60;;;;;;;6.45;92.65;99728.00;5056376;27;20027;-82